Time;durP1;ratioP1;P1;durP2;ratioP2;P2;SDS_P1;SDS_P2;PMS_P1;PMS_P2;Temp;Humidity;BMP_temperature;BMP_pressure;BME280_temperature;BME280_humidity;BME280_pressure;Samples;Min_cycle;Max_cycle;Signal;HPM_P1;HPM_P2
2024/04/17 00:00:48;;;;;;;;;;;;;;;5.90;100.00;94665.91;10820200;27;3145;-70
2024/04/17 00:05:52;;;;;;;;;;;;;;;5.90;100.00;94659.78;10812050;27;3153;-66
2024/04/17 00:10:58;;;;;;;;;;;;;;;5.92;100.00;94641.69;10807948;27;3105;-67
2024/04/17 00:16:04;;;;;;;;;;;;;;;5.96;100.00;94632.03;10806689;27;3129;-66
2024/04/17 00:21:08;;;;;;;;;;;;;;;5.96;100.00;94627.50;10807567;27;3303;-65
2024/04/17 00:26:13;;;;;;;;;;;;;;;6.05;100.00;94634.97;10810563;27;3106;-67
2024/04/17 00:31:17;;;;;;;;;;;;;;;6.03;100.00;94621.09;10809174;27;3229;-67
2024/04/17 00:36:21;;;;;;;;;;;;;;;6.10;100.00;94627.72;10811317;27;2864;-67
2024/04/17 00:41:25;;;;;;;;;;;;;;;6.08;100.00;94627.19;10814450;27;3309;-67
2024/04/17 00:46:31;;;;;;;;;;;;;;;6.11;100.00;94624.00;10812594;27;3164;-69
2024/04/17 00:51:35;;;;;;;;;;;;;;;5.97;100.00;94621.09;10816419;27;3240;-70
2024/04/17 00:56:39;;;;;;;;;;;;;;;5.96;100.00;94618.72;10815570;27;3268;-68
2024/04/17 01:01:43;;;;;;;;;;;;;;;5.89;100.00;94613.63;10809913;27;3029;-68
2024/04/17 01:06:48;;;;;;;;;;;;;;;5.95;100.00;94615.25;10806054;27;3117;-67
2024/04/17 01:11:53;;;;;;;;;;;;;;;5.96;100.00;94614.16;10810724;27;3021;-68
2024/04/17 01:16:57;;;;;;;;;;;;;;;6.04;100.00;94610.13;10804408;27;3121;-74
2024/04/17 01:22:02;;;;;;;;;;;;;;;6.02;100.00;94598.16;10808710;27;3157;-67
2024/04/17 01:27:06;;;;;;;;;;;;;;;5.92;100.00;94599.81;10811440;27;3129;-67
2024/04/17 01:32:11;;;;;;;;;;;;;;;5.85;100.00;94604.59;10806088;27;3045;-68
2024/04/17 01:37:15;;;;;;;;;;;;;;;5.70;100.00;94593.97;10811815;27;3247;-68
2024/04/17 01:42:19;;;;;;;;;;;;;;;5.68;100.00;94604.91;10804959;27;3046;-66
2024/04/17 01:47:24;;;;;;;;;;;;;;;5.64;100.00;94600.38;10777807;27;3045;-68
2024/04/17 01:52:28;;;;;;;;;;;;;;;5.58;100.00;94620.13;10814157;27;2965;-67
2024/04/17 01:57:32;;;;;;;;;;;;;;;5.67;100.00;94629.97;10779561;27;3350;-66
2024/04/17 02:02:37;;;;;;;;;;;;;;;4.72;100.00;94644.94;10808618;27;3157;-66
2024/04/17 02:07:41;;;;;;;;;;;;;;;4.46;100.00;94638.78;10813927;27;3238;-67
2024/04/17 02:12:45;;;;;;;;;;;;;;;4.28;100.00;94643.50;10806364;27;3266;-65
2024/04/17 02:17:50;;;;;;;;;;;;;;;4.15;100.00;94638.69;10812359;27;2986;-66
2024/04/17 02:22:54;;;;;;;;;;;;;;;4.22;100.00;94631.25;10812408;27;2990;-66
2024/04/17 02:27:59;;;;;;;;;;;;;;;3.87;100.00;94641.72;10804733;27;2986;-68
2024/04/17 02:33:03;;;;;;;;;;;;;;;3.15;100.00;94651.94;10800177;27;3180;-69
2024/04/17 02:38:08;;;;;;;;;;;;;;;3.01;100.00;94660.59;10801644;27;3149;-69
2024/04/17 02:43:12;;;;;;;;;;;;;;;2.84;100.00;94655.41;10804755;27;3165;-70
2024/04/17 02:48:16;;;;;;;;;;;;;;;2.82;100.00;94660.16;10820061;27;3137;-71
2024/04/17 02:53:21;;;;;;;;;;;;;;;2.75;100.00;94678.16;10821676;27;3136;-70
2024/04/17 02:58:25;;;;;;;;;;;;;;;2.47;100.00;94685.28;10819168;27;3022;-72
2024/04/17 03:03:29;;;;;;;;;;;;;;;2.40;100.00;94685.47;10821762;27;3379;-71
2024/04/17 03:08:34;;;;;;;;;;;;;;;2.49;100.00;94683.19;10821968;27;3134;-69
2024/04/17 03:13:38;;;;;;;;;;;;;;;2.46;100.00;94688.19;10818643;27;3093;-69
2024/04/17 03:18:43;;;;;;;;;;;;;;;2.32;100.00;94704.50;10818439;27;3034;-69
2024/04/17 03:23:47;;;;;;;;;;;;;;;2.33;100.00;94697.34;10819175;27;3159;-69
2024/04/17 03:28:51;;;;;;;;;;;;;;;2.31;100.00;94702.88;10817065;27;3010;-69
2024/04/17 03:33:56;;;;;;;;;;;;;;;2.35;100.00;94708.47;10822186;27;3137;-68
2024/04/17 03:39:00;;;;;;;;;;;;;;;2.24;100.00;94702.28;10822162;27;3236;-68
2024/04/17 03:44:04;;;;;;;;;;;;;;;2.16;100.00;94706.16;10818440;27;3149;-68
2024/04/17 03:49:09;;;;;;;;;;;;;;;2.25;100.00;94708.38;10822781;27;3031;-68
2024/04/17 03:54:13;;;;;;;;;;;;;;;2.36;100.00;94696.84;10824984;27;3331;-68
2024/04/17 03:59:18;;;;;;;;;;;;;;;2.48;100.00;94708.09;10809877;27;3586;-68
2024/04/17 04:04:22;;;;;;;;;;;;;;;2.41;100.00;94707.50;10809772;27;3022;-69
2024/04/17 04:09:27;;;;;;;;;;;;;;;2.24;100.00;94718.19;10814719;27;3243;-70
2024/04/17 04:14:32;;;;;;;;;;;;;;;2.23;100.00;94715.75;10791240;27;3046;-68
2024/04/17 04:19:36;;;;;;;;;;;;;;;1.89;100.00;94727.28;10811999;27;3153;-70
2024/04/17 04:24:40;;;;;;;;;;;;;;;1.68;100.00;94727.25;10815964;27;3022;-69
2024/04/17 04:29:44;;;;;;;;;;;;;;;1.69;100.00;94731.50;10816024;27;3194;-69
2024/04/17 04:34:48;;;;;;;;;;;;;;;1.56;100.00;94736.09;10815740;27;3038;-67
2024/04/17 04:39:53;;;;;;;;;;;;;;;1.65;100.00;94740.97;10812407;27;3097;-69
2024/04/17 04:44:57;;;;;;;;;;;;;;;1.67;100.00;94754.78;10804338;27;3197;-68
2024/04/17 04:50:02;;;;;;;;;;;;;;;1.76;100.00;94748.81;10813890;27;3010;-69
2024/04/17 04:55:07;;;;;;;;;;;;;;;1.85;100.00;94751.88;10821000;27;3121;-69
2024/04/17 05:00:12;;;;;;;;;;;;;;;1.81;100.00;94758.69;10812473;27;3026;-69
2024/04/17 05:05:16;;;;;;;;;;;;;;;1.73;100.00;94765.22;10812825;27;3014;-69
2024/04/17 05:10:21;;;;;;;;;;;;;;;1.42;100.00;94769.25;10810702;27;3045;-69
2024/04/17 05:15:25;;;;;;;;;;;;;;;1.30;100.00;94768.53;10810798;27;3125;-72
2024/04/17 05:20:30;;;;;;;;;;;;;;;1.18;100.00;94773.88;10785493;27;2961;-69
2024/04/17 05:25:34;;;;;;;;;;;;;;;1.18;100.00;94773.06;10813410;27;2942;-69
2024/04/17 05:30:38;;;;;;;;;;;;;;;1.16;100.00;94785.75;10811490;27;3051;-68
2024/04/17 05:35:43;;;;;;;;;;;;;;;1.19;100.00;94780.78;10812921;27;3239;-69
2024/04/17 05:40:47;;;;;;;;;;;;;;;1.30;100.00;94784.41;10810855;27;3163;-68
2024/04/17 05:45:51;;;;;;;;;;;;;;;1.43;100.00;94791.22;10813658;27;3156;-69
2024/04/17 05:50:55;;;;;;;;;;;;;;;1.57;100.00;94790.66;10810906;27;2958;-68
2024/04/17 05:55:59;;;;;;;;;;;;;;;1.87;100.00;94794.84;10801973;27;3026;-70
2024/04/17 06:01:04;;;;;;;;;;;;;;;2.17;100.00;94792.63;10806674;27;3073;-68
2024/04/17 06:06:08;;;;;;;;;;;;;;;2.03;100.00;94791.34;10807248;27;2978;-74
2024/04/17 06:11:13;;;;;;;;;;;;;;;2.34;100.00;94797.06;10806409;27;3363;-71
2024/04/17 06:16:17;;;;;;;;;;;;;;;2.84;100.00;94790.75;10811819;27;3078;-68
2024/04/17 06:21:22;;;;;;;;;;;;;;;2.92;100.00;94791.09;10809816;27;3232;-68
2024/04/17 06:26:26;;;;;;;;;;;;;;;3.24;100.00;94807.13;10815884;27;3103;-69
2024/04/17 06:31:30;;;;;;;;;;;;;;;3.72;100.00;94797.41;10813033;27;3018;-68
2024/04/17 06:36:35;;;;;;;;;;;;;;;3.91;100.00;94805.00;10804871;27;3125;-70
2024/04/17 06:41:39;;;;;;;;;;;;;;;3.98;100.00;94805.59;10803230;27;3224;-69
2024/04/17 06:47:00;;;;;;;;;;;;;;;4.44;100.00;94795.22;10808616;27;3202;-68
2024/04/17 06:52:05;;;;;;;;;;;;;;;4.39;100.00;94789.84;10816580;27;2836;-68
2024/04/17 06:57:09;;;;;;;;;;;;;;;4.60;100.00;94786.25;10808305;27;3137;-67
2024/04/17 07:02:13;;;;;;;;;;;;;;;4.78;100.00;94793.78;10809125;27;3251;-68
2024/04/17 07:07:19;;;;;;;;;;;;;;;5.06;100.00;94789.06;10802715;27;2930;-69
2024/04/17 07:12:28;;;;;;;;;;;;;;;5.05;100.00;94792.78;10803360;27;3238;-68
2024/04/17 07:17:33;;;;;;;;;;;;;;;5.01;100.00;94797.03;10796534;27;3185;-68
2024/04/17 07:22:37;;;;;;;;;;;;;;;5.02;100.00;94794.09;10803731;27;3046;-66
2024/04/17 07:27:41;;;;;;;;;;;;;;;4.95;100.00;94795.41;10803507;27;3227;-68
2024/04/17 07:32:46;;;;;;;;;;;;;;;4.88;100.00;94800.97;10801719;27;3140;-70
2024/04/17 07:37:58;;;;;;;;;;;;;;;5.04;100.00;94807.19;10814941;27;2953;-75
2024/04/17 07:43:03;;;;;;;;;;;;;;;5.04;100.00;94801.84;10817145;27;2895;-75
2024/04/17 07:48:07;;;;;;;;;;;;;;;5.39;100.00;94798.44;10814760;27;3018;-72
2024/04/17 07:53:18;;;;;;;;;;;;;;;5.63;100.00;94798.75;10819587;27;3210;-73
2024/04/17 07:58:23;;;;;;;;;;;;;;;5.50;100.00;94793.94;10811196;27;3181;-71
2024/04/17 08:03:27;;;;;;;;;;;;;;;5.25;100.00;94798.16;10810204;27;3153;-72
2024/04/17 08:08:32;;;;;;;;;;;;;;;5.47;100.00;94791.78;10810110;27;3019;-73
2024/04/17 08:13:37;;;;;;;;;;;;;;;5.53;100.00;94802.19;10809700;27;3157;-73
2024/04/17 08:18:41;;;;;;;;;;;;;;;5.57;100.00;94797.94;10809848;27;3132;-73
2024/04/17 08:23:46;;;;;;;;;;;;;;;6.13;100.00;94805.16;10809524;27;2864;-71
2024/04/17 08:28:51;;;;;;;;;;;;;;;7.35;100.00;94796.69;10812998;27;3145;-72
2024/04/17 08:33:56;;;;;;;;;;;;;;;6.97;100.00;94788.34;10808546;27;3038;-70
2024/04/17 08:39:00;;;;;;;;;;;;;;;7.08;100.00;94788.31;10808985;27;3139;-70
2024/04/17 08:44:07;;;;;;;;;;;;;;;7.94;100.00;94789.56;10803776;27;3133;-68
2024/04/17 08:49:11;;;;;;;;;;;;;;;8.36;100.00;94783.59;10807645;27;2847;-70
2024/04/17 08:54:15;;;;;;;;;;;;;;;8.56;100.00;94786.06;10808473;27;3164;-68
2024/04/17 08:59:20;;;;;;;;;;;;;;;7.94;100.00;94798.41;10784114;27;3239;-70
2024/04/17 09:04:24;;;;;;;;;;;;;;;7.86;100.00;94801.69;10774460;27;3225;-69
2024/04/17 09:09:28;;;;;;;;;;;;;;;8.33;100.00;94795.66;10804255;27;3026;-68
2024/04/17 09:14:32;;;;;;;;;;;;;;;8.59;100.00;94785.50;10807734;27;2989;-68
2024/04/17 09:19:49;;;;;;;;;;;;;;;8.56;100.00;94778.03;10811500;27;3277;-70
2024/04/17 09:24:53;;;;;;;;;;;;;;;8.69;100.00;94786.47;10801050;27;3014;-69
2024/04/17 09:29:58;;;;;;;;;;;;;;;9.12;100.00;94780.03;10799841;27;3129;-73
2024/04/17 09:35:03;;;;;;;;;;;;;;;9.34;100.00;94781.34;10804975;27;3150;-69
2024/04/17 09:40:08;;;;;;;;;;;;;;;8.60;100.00;94772.91;10808014;27;3032;-69
2024/04/17 09:45:13;;;;;;;;;;;;;;;8.72;100.00;94777.88;10804773;27;3200;-73
2024/04/17 09:50:17;;;;;;;;;;;;;;;7.69;100.00;94782.56;10808279;27;3460;-69
2024/04/17 09:55:22;;;;;;;;;;;;;;;6.90;100.00;94779.03;10806268;27;3121;-68
2024/04/17 10:00:26;;;;;;;;;;;;;;;7.32;100.00;94786.56;10803943;27;3232;-70
2024/04/17 10:05:30;;;;;;;;;;;;;;;7.26;100.00;94780.44;10803787;27;3134;-71
2024/04/17 10:10:34;;;;;;;;;;;;;;;7.40;100.00;94769.94;10800828;27;3120;-70
2024/04/17 10:15:39;;;;;;;;;;;;;;;8.67;100.00;94757.28;10804048;27;3121;-68
2024/04/17 10:20:43;;;;;;;;;;;;;;;9.81;100.00;94748.19;10805792;27;3140;-68
2024/04/17 10:25:48;;;;;;;;;;;;;;;9.83;100.00;94747.91;10800757;27;3037;-69
2024/04/17 10:30:52;;;;;;;;;;;;;;;10.60;100.00;94748.16;10801896;27;3008;-70
2024/04/17 10:35:56;;;;;;;;;;;;;;;10.27;100.00;94736.69;10775894;27;3140;-71
2024/04/17 10:41:00;;;;;;;;;;;;;;;9.60;100.00;94741.53;10804749;27;2991;-71
2024/04/17 10:46:04;;;;;;;;;;;;;;;9.37;100.00;94737.88;10801731;27;3129;-72
2024/04/17 10:51:09;;;;;;;;;;;;;;;8.74;100.00;94740.88;10806761;27;3300;-71
2024/04/17 10:56:13;;;;;;;;;;;;;;;8.18;100.00;94760.19;10807003;27;3124;-71
2024/04/17 11:01:19;;;;;;;;;;;;;;;7.11;100.00;94753.00;10800618;27;3069;-71
2024/04/17 11:06:23;;;;;;;;;;;;;;;6.95;100.00;94745.06;10807355;27;2903;-70
2024/04/17 11:11:27;;;;;;;;;;;;;;;7.29;100.00;94750.47;10781683;27;3084;-70
2024/04/17 11:16:32;;;;;;;;;;;;;;;7.48;100.00;94750.63;10809484;27;3235;-71
2024/04/17 11:21:36;;;;;;;;;;;;;;;7.78;100.00;94738.88;10813219;27;3374;-71
2024/04/17 11:26:40;;;;;;;;;;;;;;;8.74;100.00;94732.84;10814149;27;2579;-71
2024/04/17 11:31:45;;;;;;;;;;;;;;;9.12;100.00;94720.25;10814060;27;3000;-72
2024/04/17 11:36:49;;;;;;;;;;;;;;;8.47;100.00;94722.72;10811242;27;3239;-71
2024/04/17 11:41:54;;;;;;;;;;;;;;;8.21;100.00;94714.94;10807075;27;3003;-70
2024/04/17 11:46:58;;;;;;;;;;;;;;;8.41;100.00;94713.94;10811335;27;3132;-72
2024/04/17 11:52:03;;;;;;;;;;;;;;;8.85;100.00;94704.81;10788719;27;2875;-71
2024/04/17 11:57:08;;;;;;;;;;;;;;;9.37;100.00;94701.13;10809802;27;3248;-71
2024/04/17 12:02:17;;;;;;;;;;;;;;;8.75;100.00;94699.59;10811690;27;3154;-70
2024/04/17 12:07:21;;;;;;;;;;;;;;;8.43;100.00;94714.44;10809494;27;3046;-71
2024/04/17 12:12:27;;;;;;;;;;;;;;;8.43;100.00;94714.44;10815264;27;3121;-72
2024/04/17 12:17:31;;;;;;;;;;;;;;;9.66;100.00;94713.53;10816065;27;3035;-70
2024/04/17 12:22:35;;;;;;;;;;;;;;;10.47;100.00;94711.34;10810531;27;3145;-70
2024/04/17 12:27:40;;;;;;;;;;;;;;;9.88;100.00;94731.72;10811337;27;2986;-69
2024/04/17 12:32:44;;;;;;;;;;;;;;;6.52;100.00;94770.63;10811902;27;3152;-75
2024/04/17 12:37:48;;;;;;;;;;;;;;;4.64;100.00;94779.31;10812910;27;3306;-73
2024/04/17 12:42:53;;;;;;;;;;;;;;;3.90;100.00;94814.03;10817642;27;3142;-72
2024/04/17 12:47:57;;;;;;;;;;;;;;;3.98;100.00;94814.34;10790056;27;2978;-73
2024/04/17 12:53:02;;;;;;;;;;;;;;;4.07;100.00;94835.94;10813867;27;3244;-71
2024/04/17 12:58:06;;;;;;;;;;;;;;;3.97;100.00;94826.06;10815045;27;3343;-72
2024/04/17 13:03:11;;;;;;;;;;;;;;;3.67;100.00;94837.25;10811146;27;3130;-72
2024/04/17 13:08:15;;;;;;;;;;;;;;;3.61;100.00;94832.13;10811429;27;3227;-74
2024/04/17 13:13:19;;;;;;;;;;;;;;;3.56;100.00;94824.13;10812267;27;3167;-74
2024/04/17 13:18:24;;;;;;;;;;;;;;;3.72;100.00;94823.19;10782663;27;3228;-73
2024/04/17 13:23:28;;;;;;;;;;;;;;;3.89;100.00;94820.41;10809220;27;3140;-72
2024/04/17 13:28:33;;;;;;;;;;;;;;;4.78;100.00;94804.44;10812156;27;3014;-73
2024/04/17 13:33:39;;;;;;;;;;;;;;;5.97;100.00;94809.69;10812131;27;3074;-73
2024/04/17 13:38:44;;;;;;;;;;;;;;;6.40;100.00;94789.63;10807551;27;3231;-72
2024/04/17 13:43:49;;;;;;;;;;;;;;;6.58;100.00;94800.78;10804680;27;3240;-73
2024/04/17 13:48:54;;;;;;;;;;;;;;;6.32;100.00;94798.19;10812510;27;3196;-72
2024/04/17 13:53:58;;;;;;;;;;;;;;;5.48;100.00;94804.06;10808052;27;3026;-71
2024/04/17 13:59:02;;;;;;;;;;;;;;;4.74;100.00;94810.53;10805792;27;2954;-72
2024/04/17 14:04:07;;;;;;;;;;;;;;;4.39;100.00;94814.63;10808335;27;2998;-72
2024/04/17 14:09:11;;;;;;;;;;;;;;;5.01;100.00;94799.69;10809940;27;3125;-74
2024/04/17 14:14:16;;;;;;;;;;;;;;;4.87;100.00;94797.53;10808610;27;3350;-72
2024/04/17 14:19:20;;;;;;;;;;;;;;;4.93;100.00;94805.53;10813718;27;3128;-72
2024/04/17 14:24:25;;;;;;;;;;;;;;;5.10;100.00;94819.44;10808191;27;3140;-72
2024/04/17 14:29:32;;;;;;;;;;;;;;;5.47;100.00;94818.44;10805893;27;3120;-71
2024/04/17 14:34:36;;;;;;;;;;;;;;;5.56;100.00;94819.53;10805623;27;3227;-71
2024/04/17 14:39:41;;;;;;;;;;;;;;;6.03;100.00;94827.28;10805801;27;3137;-72
2024/04/17 14:44:45;;;;;;;;;;;;;;;6.43;100.00;94828.34;10800028;27;3141;-71
2024/04/17 14:49:50;;;;;;;;;;;;;;;6.66;100.00;94818.91;10802746;27;3172;-71
2024/04/17 14:54:54;;;;;;;;;;;;;;;6.60;100.00;94822.66;10777436;27;3059;-70
2024/04/17 14:59:58;;;;;;;;;;;;;;;6.50;100.00;94824.31;10806844;27;3055;-70
2024/04/17 15:05:02;;;;;;;;;;;;;;;6.41;100.00;94825.91;10808461;27;2879;-70
2024/04/17 15:10:07;;;;;;;;;;;;;;;6.45;100.00;94826.97;10780236;27;3188;-69
2024/04/17 15:15:12;;;;;;;;;;;;;;;5.84;100.00;94827.00;10807321;27;2957;-71
2024/04/17 15:20:16;;;;;;;;;;;;;;;5.56;100.00;94840.84;10807015;27;3124;-71
2024/04/17 15:25:21;;;;;;;;;;;;;;;5.51;100.00;94841.66;10807895;27;3676;-71
2024/04/17 15:30:26;;;;;;;;;;;;;;;5.92;100.00;94845.19;10806024;27;3117;-71
2024/04/17 15:35:30;;;;;;;;;;;;;;;6.89;100.00;94853.03;10804846;27;3106;-72
2024/04/17 15:40:35;;;;;;;;;;;;;;;6.84;100.00;94841.56;10805266;27;3028;-71
2024/04/17 15:45:47;;;;;;;;;;;;;;;6.56;100.00;94843.00;10804877;27;2950;-72
2024/04/17 15:50:56;;;;;;;;;;;;;;;6.20;100.00;94843.03;10804567;27;3164;-71
2024/04/17 15:56:00;;;;;;;;;;;;;;;6.03;100.00;94851.31;10813099;27;3169;-71
2024/04/17 16:01:04;;;;;;;;;;;;;;;6.22;100.00;94856.91;10808270;27;3081;-70
2024/04/17 16:06:08;;;;;;;;;;;;;;;6.22;100.00;94863.03;10809661;27;3145;-71
2024/04/17 16:11:13;;;;;;;;;;;;;;;6.15;100.00;94870.53;10811194;27;3284;-71
2024/04/17 16:16:18;;;;;;;;;;;;;;;5.94;100.00;94864.38;10810111;27;3118;-71
2024/04/17 16:21:24;;;;;;;;;;;;;;;6.00;100.00;94862.53;10801130;27;3358;-70
2024/04/17 16:26:29;;;;;;;;;;;;;;;5.94;100.00;94869.72;10776899;27;3192;-70
2024/04/17 16:31:34;;;;;;;;;;;;;;;6.19;100.00;94870.78;10804367;27;3375;-70
2024/04/17 16:36:38;;;;;;;;;;;;;;;6.23;100.00;94869.16;10806467;27;3232;-71
2024/04/17 16:41:43;;;;;;;;;;;;;;;6.11;100.00;94882.81;10804820;27;2958;-72
2024/04/17 16:46:47;;;;;;;;;;;;;;;6.05;100.00;94873.19;10804236;27;2998;-72
2024/04/17 16:51:52;;;;;;;;;;;;;;;5.94;100.00;94880.41;10809448;27;3247;-71
2024/04/17 16:56:56;;;;;;;;;;;;;;;5.93;100.00;94886.81;10812104;27;3190;-72
2024/04/17 17:02:00;;;;;;;;;;;;;;;6.05;100.00;94889.22;10803990;27;3238;-70
2024/04/17 17:07:05;;;;;;;;;;;;;;;5.94;100.00;94900.94;10807333;27;3194;-72
2024/04/17 17:12:09;;;;;;;;;;;;;;;5.69;100.00;94902.47;10810993;27;3153;-70
2024/04/17 17:17:14;;;;;;;;;;;;;;;5.22;100.00;94937.25;10809631;27;3126;-71
2024/04/17 17:22:21;;;;;;;;;;;;;;;4.40;100.00;94946.63;10804713;27;3121;-73
2024/04/17 17:27:25;;;;;;;;;;;;;;;3.77;100.00;94956.16;10807620;27;3145;-73
2024/04/17 17:32:29;;;;;;;;;;;;;;;3.66;100.00;94957.09;10810350;27;3279;-72
2024/04/17 17:37:34;;;;;;;;;;;;;;;3.75;100.00;94967.06;10815974;27;3200;-71
2024/04/17 17:42:38;;;;;;;;;;;;;;;3.95;100.00;94981.59;10806708;27;3113;-70
2024/04/17 17:47:43;;;;;;;;;;;;;;;3.91;100.00;94975.97;10777038;27;3228;-71
2024/04/17 17:52:48;;;;;;;;;;;;;;;3.63;100.00;94978.88;10808830;27;2873;-72
2024/04/17 17:57:52;;;;;;;;;;;;;;;3.68;100.00;94977.06;10807867;27;3128;-73
2024/04/17 18:02:56;;;;;;;;;;;;;;;3.57;100.00;94974.56;10807978;27;2970;-71
2024/04/17 18:08:00;;;;;;;;;;;;;;;3.69;100.00;94989.31;10770920;27;3116;-72
2024/04/17 18:13:05;;;;;;;;;;;;;;;3.80;100.00;94991.00;10811332;27;3137;-72
2024/04/17 18:18:09;;;;;;;;;;;;;;;3.62;100.00;94996.66;10810578;27;2999;-73
2024/04/17 18:23:13;;;;;;;;;;;;;;;3.65;100.00;94990.84;10805644;27;3192;-72
2024/04/17 18:28:17;;;;;;;;;;;;;;;3.66;100.00;94989.00;10814531;27;3148;-72
2024/04/17 18:33:22;;;;;;;;;;;;;;;3.57;100.00;94995.81;10811206;27;3156;-71
2024/04/17 18:38:26;;;;;;;;;;;;;;;3.60;100.00;94996.09;10804898;27;3258;-71
2024/04/17 18:43:30;;;;;;;;;;;;;;;3.52;100.00;95010.63;10808400;27;3177;-71
2024/04/17 18:48:35;;;;;;;;;;;;;;;3.54;100.00;95023.66;10809716;27;3089;-71
2024/04/17 18:53:40;;;;;;;;;;;;;;;3.46;100.00;95024.91;10814867;27;3176;-72
2024/04/17 18:58:45;;;;;;;;;;;;;;;3.37;100.00;95022.91;10778918;27;3248;-71
2024/04/17 19:03:49;;;;;;;;;;;;;;;3.37;100.00;95033.53;10806500;27;3133;-70
2024/04/17 19:08:54;;;;;;;;;;;;;;;3.35;100.00;95033.00;10805935;27;3140;-70
2024/04/17 19:13:58;;;;;;;;;;;;;;;3.33;100.00;95037.75;10806202;27;3252;-70
2024/04/17 19:19:02;;;;;;;;;;;;;;;3.23;100.00;95033.91;10807529;27;3224;-71
2024/04/17 19:24:06;;;;;;;;;;;;;;;3.32;100.00;95029.00;10808335;27;3129;-71
2024/04/17 19:29:14;;;;;;;;;;;;;;;3.35;100.00;95033.00;10808999;27;3002;-70
2024/04/17 19:34:38;;;;;;;;;;;;;;;3.24;100.00;95035.53;10814765;27;3022;-71
2024/04/17 19:39:42;;;;;;;;;;;;;;;3.22;100.00;95029.66;10818422;27;3240;-72
2024/04/17 19:44:46;;;;;;;;;;;;;;;3.17;100.00;95031.44;10817776;27;3216;-70
2024/04/17 19:49:51;;;;;;;;;;;;;;;3.12;100.00;95026.88;10781854;27;3147;-72
2024/04/17 19:54:55;;;;;;;;;;;;;;;2.99;100.00;95037.84;10764693;27;3149;-72
2024/04/17 19:59:59;;;;;;;;;;;;;;;2.87;100.00;95034.47;10823797;27;3124;-71
2024/04/17 20:05:04;;;;;;;;;;;;;;;2.76;100.00;95025.53;10830182;27;3227;-70
2024/04/17 20:10:09;;;;;;;;;;;;;;;2.62;100.00;95022.44;10820479;27;2871;-70
2024/04/17 20:15:13;;;;;;;;;;;;;;;2.57;100.00;95019.69;10815018;27;3134;-72
2024/04/17 20:20:17;;;;;;;;;;;;;;;2.51;100.00;95022.50;10813404;27;2938;-71
2024/04/17 20:25:33;;;;;;;;;;;;;;;2.48;100.00;95013.16;10816331;27;3140;-70
2024/04/17 20:30:37;;;;;;;;;;;;;;;2.39;100.00;95015.41;10815467;27;3251;-71
2024/04/17 20:35:41;;;;;;;;;;;;;;;2.47;100.00;95030.13;10818257;27;3103;-72
2024/04/17 20:40:46;;;;;;;;;;;;;;;2.44;100.00;95022.66;10815965;27;3244;-72
2024/04/17 20:45:50;;;;;;;;;;;;;;;2.51;100.00;95020.66;10823392;27;3174;-71
2024/04/17 20:50:54;;;;;;;;;;;;;;;2.48;100.00;95015.81;10813037;27;3355;-71
2024/04/17 20:55:59;;;;;;;;;;;;;;;2.54;100.00;95019.34;10816092;27;3030;-72
2024/04/17 21:01:04;;;;;;;;;;;;;;;2.54;100.00;95020.16;10813178;27;2911;-70
2024/04/17 21:06:08;;;;;;;;;;;;;;;2.67;100.00;95019.03;10786198;27;3311;-72
2024/04/17 21:11:13;;;;;;;;;;;;;;;2.59;100.00;95022.91;10808030;27;2864;-70
2024/04/17 21:16:18;;;;;;;;;;;;;;;2.59;100.00;95025.53;10812280;27;2990;-70
2024/04/17 21:21:24;;;;;;;;;;;;;;;2.56;100.00;95022.59;10810861;27;3073;-71
2024/04/17 21:26:28;;;;;;;;;;;;;;;2.55;100.00;95016.47;10807360;27;2975;-69
2024/04/17 21:31:33;;;;;;;;;;;;;;;2.52;100.00;95019.59;10803040;27;3224;-70
2024/04/17 21:36:38;;;;;;;;;;;;;;;2.55;100.00;95027.09;10807820;27;2951;-70
2024/04/17 21:41:42;;;;;;;;;;;;;;;2.52;100.00;95024.91;10802574;27;3042;-70
2024/04/17 21:46:46;;;;;;;;;;;;;;;2.57;100.00;95025.00;10804998;27;3172;-69
2024/04/17 21:51:50;;;;;;;;;;;;;;;2.62;100.00;95027.72;10807528;27;3064;-71
2024/04/17 21:57:09;;;;;;;;;;;;;;;2.64;100.00;95046.84;10807772;27;3129;-70
2024/04/17 22:02:15;;;;;;;;;;;;;;;2.74;100.00;95037.47;10808311;27;3125;-69
2024/04/17 22:07:19;;;;;;;;;;;;;;;2.73;100.00;95039.28;10804228;27;3349;-71
2024/04/17 22:12:23;;;;;;;;;;;;;;;2.82;100.00;95037.84;10813158;27;2679;-76
2024/04/17 22:17:28;;;;;;;;;;;;;;;2.82;100.00;95045.00;10814641;27;3048;-71
2024/04/17 22:22:32;;;;;;;;;;;;;;;2.80;100.00;95047.09;10814190;27;3039;-71
2024/04/17 22:27:36;;;;;;;;;;;;;;;2.83;100.00;95054.56;10807798;27;3246;-72
2024/04/17 22:32:41;;;;;;;;;;;;;;;2.75;100.00;95058.44;10778004;27;3126;-70
2024/04/17 22:37:45;;;;;;;;;;;;;;;2.72;100.00;95058.91;10813241;27;3242;-69
2024/04/17 22:42:49;;;;;;;;;;;;;;;2.64;100.00;95067.28;10816284;27;2856;-70
2024/04/17 22:47:53;;;;;;;;;;;;;;;2.78;100.00;95065.09;10810048;27;3266;-69
2024/04/17 22:52:58;;;;;;;;;;;;;;;2.70;100.00;95071.63;10804693;27;3187;-71
2024/04/17 22:58:02;;;;;;;;;;;;;;;2.51;100.00;95070.25;10804905;27;3003;-71
2024/04/17 23:03:06;;;;;;;;;;;;;;;2.50;100.00;95076.59;10815987;27;2970;-69
2024/04/17 23:08:11;;;;;;;;;;;;;;;2.42;100.00;95070.66;10809420;27;3251;-72
2024/04/17 23:13:15;;;;;;;;;;;;;;;2.49;100.00;95069.69;10814171;27;3240;-73
2024/04/17 23:18:20;;;;;;;;;;;;;;;2.43;100.00;95072.25;10811523;27;2954;-70
2024/04/17 23:23:24;;;;;;;;;;;;;;;2.53;100.00;95068.16;10810769;27;2583;-70
2024/04/17 23:28:28;;;;;;;;;;;;;;;2.65;100.00;95075.00;10816570;27;3015;-69
2024/04/17 23:33:32;;;;;;;;;;;;;;;2.71;100.00;95066.06;10818453;27;2855;-69
2024/04/17 23:38:37;;;;;;;;;;;;;;;2.43;100.00;95066.97;10814977;27;3141;-71
2024/04/17 23:43:42;;;;;;;;;;;;;;;2.35;100.00;95067.31;10815993;27;3237;-70
2024/04/17 23:48:46;;;;;;;;;;;;;;;2.31;100.00;95071.53;10791188;27;2859;-70
2024/04/17 23:53:50;;;;;;;;;;;;;;;2.37;100.00;95067.09;10822652;27;3253;-70
2024/04/17 23:58:55;;;;;;;;;;;;;;;2.43;100.00;95066.97;10812306;27;3109;-70
